Dukedom, Tennessee
Current Conditions -  °F | °C
As of 8:55 PM on Monday 22 Dec 2014 (Local Time) from KUCY Reporting Station
Overcast Overcast  
Wind Chill: 52°   Ceiling: 800
Heat Index: 52°   Visibility: 10mi
Dew Point: 52°   Wind: 9mph
Humidity: 100%   Direction: 180°S
Pressure: 29.62"   Gusts: NA
Location:  36.5°N, 88.71°W
Report Text: KUCY 230255Z AUTO 18008KT 10SM BKN008 BKN013 OVC024 11/11 A2962 RMK
Loading
Personal Weather Stations






























Interactive Weather Map New forecast layout! Learn more

10-Day Weather Forecast

Advertisements
Track Severe Weather on mobile